sensor_id;sensor_type;location;lat;lon;timestamp;pressure;altitude;pressure_sealevel;temperature;humidity
80892;BME280;70343;51.530;5.050;2024-02-15T00:00:41;101625.59;;;11.51;100.00
80892;BME280;70343;51.530;5.050;2024-02-15T00:03:08;101623.16;;;11.50;100.00
80892;BME280;70343;51.530;5.050;2024-02-15T00:05:34;101622.53;;;11.48;100.00
80892;BME280;70343;51.530;5.050;2024-02-15T00:08:03;101623.16;;;11.50;100.00
80892;BME280;70343;51.530;5.050;2024-02-15T00:10:29;101625.78;;;11.50;100.00
80892;BME280;70343;51.530;5.050;2024-02-15T00:12:55;101629.03;;;11.52;100.00
80892;BME280;70343;51.530;5.050;2024-02-15T00:15:20;101631.63;;;11.52;100.00
80892;BME280;70343;51.530;5.050;2024-02-15T00:17:46;101618.91;;;11.49;100.00
80892;BME280;70343;51.530;5.050;2024-02-15T00:20:14;101635.84;;;11.53;100.00
80892;BME280;70343;51.530;5.050;2024-02-15T00:22:40;101623.78;;;11.52;100.00
80892;BME280;70343;51.530;5.050;2024-02-15T00:25:09;101626.41;;;11.52;100.00
80892;BME280;70343;51.530;5.050;2024-02-15T00:27:36;101625.78;;;11.50;100.00
80892;BME280;70343;51.530;5.050;2024-02-15T00:30:03;101623.16;;;11.50;100.00
80892;BME280;70343;51.530;5.050;2024-02-15T00:32:30;101622.16;;;11.51;100.00
80892;BME280;70343;51.530;5.050;2024-02-15T00:34:56;101620.72;;;11.48;100.00
80892;BME280;70343;51.530;5.050;2024-02-15T00:37:22;101630.34;;;11.48;100.00
80892;BME280;70343;51.530;5.050;2024-02-15T00:39:47;101627.09;;;11.46;100.00
80892;BME280;70343;51.530;5.050;2024-02-15T00:42:13;101618.75;;;11.50;100.00
80892;BME280;70343;51.530;5.050;2024-02-15T00:44:39;101626.09;;;11.47;100.00
80892;BME280;70343;51.530;5.050;2024-02-15T00:47:04;101624.75;;;11.51;100.00
80892;BME280;70343;51.530;5.050;2024-02-15T00:49:30;101622.53;;;11.48;100.00
80892;BME280;70343;51.530;5.050;2024-02-15T00:51:55;101617.75;;;11.51;100.00
80892;BME280;70343;51.530;5.050;2024-02-15T00:54:21;101613.34;;;11.52;100.00
80892;BME280;70343;51.530;5.050;2024-02-15T00:56:47;101614.97;;;11.53;100.00
80892;BME280;70343;51.530;5.050;2024-02-15T00:59:13;101620.88;;;11.47;100.00
80892;BME280;70343;51.530;5.050;2024-02-15T01:01:39;101621.38;;;11.50;100.00
80892;BME280;70343;51.530;5.050;2024-02-15T01:04:06;101607.66;;;11.48;100.00
80892;BME280;70343;51.530;5.050;2024-02-15T01:06:32;101601.81;;;11.46;100.00
80892;BME280;70343;51.530;5.050;2024-02-15T01:08:59;101597.91;;;11.42;100.00
80892;BME280;70343;51.530;5.050;2024-02-15T01:11:26;101596.47;;;11.40;100.00
80892;BME280;70343;51.530;5.050;2024-02-15T01:13:54;101588.00;;;11.38;100.00
80892;BME280;70343;51.530;5.050;2024-02-15T01:16:19;101592.56;;;11.36;100.00
80892;BME280;70343;51.530;5.050;2024-02-15T01:18:47;101587.72;;;11.33;100.00
80892;BME280;70343;51.530;5.050;2024-02-15T01:21:12;101591.75;;;11.35;100.00
80892;BME280;70343;51.530;5.050;2024-02-15T01:23:38;101585.38;;;11.38;100.00
80892;BME280;70343;51.530;5.050;2024-02-15T01:26:04;101586.53;;;11.35;100.00
80892;BME280;70343;51.530;5.050;2024-02-15T01:28:30;101589.63;;;11.39;100.00
80892;BME280;70343;51.530;5.050;2024-02-15T01:30:56;101590.28;;;11.41;100.00
80892;BME280;70343;51.530;5.050;2024-02-15T01:33:22;101588.25;;;11.43;100.00
80892;BME280;70343;51.530;5.050;2024-02-15T01:35:47;101593.50;;;11.43;100.00
80892;BME280;70343;51.530;5.050;2024-02-15T01:38:13;101581.78;;;11.39;100.00
80892;BME280;70343;51.530;5.050;2024-02-15T01:40:39;101589.28;;;11.42;100.00
80892;BME280;70343;51.530;5.050;2024-02-15T01:43:04;101588.13;;;11.44;100.00
80892;BME280;70343;51.530;5.050;2024-02-15T01:45:30;101573.22;;;11.45;100.00
80892;BME280;70343;51.530;5.050;2024-02-15T01:47:56;101579.47;;;11.44;100.00
80892;BME280;70343;51.530;5.050;2024-02-15T01:50:23;101569.53;;;11.39;100.00
80892;BME280;70343;51.530;5.050;2024-02-15T01:52:52;101573.97;;;11.39;100.00
80892;BME280;70343;51.530;5.050;2024-02-15T01:55:20;101576.22;;;11.42;100.00
80892;BME280;70343;51.530;5.050;2024-02-15T01:57:48;101576.91;;;11.36;100.00
80892;BME280;70343;51.530;5.050;2024-02-15T02:00:15;101573.31;;;11.37;100.00
80892;BME280;70343;51.530;5.050;2024-02-15T02:02:44;101563.22;;;11.34;100.00
80892;BME280;70343;51.530;5.050;2024-02-15T02:05:10;101560.66;;;11.26;100.00
80892;BME280;70343;51.530;5.050;2024-02-15T02:07:35;101565.56;;;11.29;100.00
80892;BME280;70343;51.530;5.050;2024-02-15T02:10:02;101576.47;;;11.32;100.00
80892;BME280;70343;51.530;5.050;2024-02-15T02:12:27;101570.78;;;11.29;100.00
80892;BME280;70343;51.530;5.050;2024-02-15T02:14:54;101563.47;;;11.24;100.00
80892;BME280;70343;51.530;5.050;2024-02-15T02:17:19;101555.44;;;11.26;100.00
80892;BME280;70343;51.530;5.050;2024-02-15T02:19:45;101553.84;;;11.25;100.00
80892;BME280;70343;51.530;5.050;2024-02-15T02:22:11;101546.66;;;11.27;100.00
80892;BME280;70343;51.530;5.050;2024-02-15T02:25:04;101547.16;;;11.22;100.00
80892;BME280;70343;51.530;5.050;2024-02-15T02:27:32;101542.13;;;11.21;100.00
80892;BME280;70343;51.530;5.050;2024-02-15T02:29:58;101540.47;;;11.20;100.00
80892;BME280;70343;51.530;5.050;2024-02-15T02:32:27;101541.19;;;11.14;100.00
80892;BME280;70343;51.530;5.050;2024-02-15T02:34:53;101540.84;;;11.17;100.00
80892;BME280;70343;51.530;5.050;2024-02-15T02:37:25;101537.41;;;11.16;100.00
80892;BME280;70343;51.530;5.050;2024-02-15T02:39:51;101540.66;;;11.18;100.00
80892;BME280;70343;51.530;5.050;2024-02-15T02:42:16;101535.44;;;11.18;100.00
80892;BME280;70343;51.530;5.050;2024-02-15T02:44:42;101544.38;;;11.24;100.00
80892;BME280;70343;51.530;5.050;2024-02-15T02:47:07;101537.16;;;11.26;100.00
80892;BME280;70343;51.530;5.050;2024-02-15T02:49:35;101539.16;;;11.24;100.00
80892;BME280;70343;51.530;5.050;2024-02-15T02:52:01;101537.00;;;11.27;100.00
80892;BME280;70343;51.530;5.050;2024-02-15T02:54:26;101539.59;;;11.27;100.00
80892;BME280;70343;51.530;5.050;2024-02-15T02:56:52;101531.25;;;11.32;100.00
80892;BME280;70343;51.530;5.050;2024-02-15T02:59:17;101541.50;;;11.33;100.00
80892;BME280;70343;51.530;5.050;2024-02-15T03:01:43;101541.50;;;11.33;100.00
80892;BME280;70343;51.530;5.050;2024-02-15T03:04:08;101533.84;;;11.32;100.00
80892;BME280;70343;51.530;5.050;2024-02-15T03:06:34;101535.84;;;11.30;100.00
80892;BME280;70343;51.530;5.050;2024-02-15T03:09:00;101533.03;;;11.31;100.00
80892;BME280;70343;51.530;5.050;2024-02-15T03:11:26;101530.28;;;11.33;100.00
80892;BME280;70343;51.530;5.050;2024-02-15T03:13:52;101531.88;;;11.34;100.00
80892;BME280;70343;51.530;5.050;2024-02-15T03:16:22;101522.06;;;11.36;100.00
80892;BME280;70343;51.530;5.050;2024-02-15T03:18:47;101514.25;;;11.36;100.00
80892;BME280;70343;51.530;5.050;2024-02-15T03:21:14;101514.69;;;11.39;100.00
80892;BME280;70343;51.530;5.050;2024-02-15T03:23:40;101522.38;;;11.41;100.00
80892;BME280;70343;51.530;5.050;2024-02-15T03:26:07;101514.53;;;11.41;100.00
80892;BME280;70343;51.530;5.050;2024-02-15T03:28:33;101523.72;;;11.37;100.00
80892;BME280;70343;51.530;5.050;2024-02-15T03:31:02;101523.34;;;11.40;100.00
80892;BME280;70343;51.530;5.050;2024-02-15T03:33:27;101516.34;;;11.40;100.00
80892;BME280;70343;51.530;5.050;2024-02-15T03:35:58;101512.53;;;11.43;100.00
80892;BME280;70343;51.530;5.050;2024-02-15T03:38:29;101511.94;;;11.41;100.00
80892;BME280;70343;51.530;5.050;2024-02-15T03:40:55;101508.31;;;11.42;100.00
80892;BME280;70343;51.530;5.050;2024-02-15T03:43:21;101513.53;;;11.42;100.00
80892;BME280;70343;51.530;5.050;2024-02-15T03:45:49;101513.53;;;11.42;100.00
80892;BME280;70343;51.530;5.050;2024-02-15T03:48:15;101516.16;;;11.42;100.00
80892;BME280;70343;51.530;5.050;2024-02-15T03:50:41;101520.38;;;11.43;100.00
80892;BME280;70343;51.530;5.050;2024-02-15T03:53:08;101518.13;;;11.40;100.00
80892;BME280;70343;51.530;5.050;2024-02-15T03:55:34;101521.09;;;11.37;100.00
80892;BME280;70343;51.530;5.050;2024-02-15T03:58:00;101533.59;;;11.41;100.00
80892;BME280;70343;51.530;5.050;2024-02-15T04:00:26;101521.09;;;11.37;100.00
80892;BME280;70343;51.530;5.050;2024-02-15T04:02:51;101524.34;;;11.39;100.00
80892;BME280;70343;51.530;5.050;2024-02-15T04:05:17;101517.31;;;11.39;100.00
80892;BME280;70343;51.530;5.050;2024-02-15T04:07:46;101515.16;;;11.43;100.00
80892;BME280;70343;51.530;5.050;2024-02-15T04:10:12;101512.28;;;11.38;100.00
80892;BME280;70343;51.530;5.050;2024-02-15T04:12:37;101511.44;;;11.37;100.00
80892;BME280;70343;51.530;5.050;2024-02-15T04:15:04;101505.06;;;11.40;100.00
80892;BME280;70343;51.530;5.050;2024-02-15T04:17:37;101502.47;;;11.40;100.00
80892;BME280;70343;51.530;5.050;2024-02-15T04:20:04;101500.22;;;11.37;100.00
80892;BME280;70343;51.530;5.050;2024-02-15T04:22:32;101506.34;;;11.44;100.00
80892;BME280;70343;51.530;5.050;2024-02-15T04:25:05;101502.47;;;11.40;100.00
80892;BME280;70343;51.530;5.050;2024-02-15T04:27:35;101501.00;;;11.37;100.00
80892;BME280;70343;51.530;5.050;2024-02-15T04:30:04;101498.56;;;11.36;100.00
80892;BME280;70343;51.530;5.050;2024-02-15T04:32:30;101495.16;;;11.35;100.00
80892;BME280;70343;51.530;5.050;2024-02-15T04:34:59;101490.75;;;11.36;100.00
80892;BME280;70343;51.530;5.050;2024-02-15T04:37:25;101483.09;;;11.34;100.00
80892;BME280;70343;51.530;5.050;2024-02-15T04:39:52;101495.00;;;11.37;100.00
80892;BME280;70343;51.530;5.050;2024-02-15T04:42:17;101496.59;;;11.38;100.00
80892;BME280;70343;51.530;5.050;2024-02-15T04:44:44;101489.78;;;11.37;100.00
80892;BME280;70343;51.530;5.050;2024-02-15T04:47:09;101497.88;;;11.42;100.00
80892;BME280;70343;51.530;5.050;2024-02-15T04:49:35;101492.66;;;11.42;100.00
80892;BME280;70343;51.530;5.050;2024-02-15T04:52:04;101499.84;;;11.40;100.00
80892;BME280;70343;51.530;5.050;2024-02-15T04:54:30;101494.81;;;11.38;100.00
80892;BME280;70343;51.530;5.050;2024-02-15T04:56:56;101492.38;;;11.37;100.00
80892;BME280;70343;51.530;5.050;2024-02-15T04:59:22;101493.34;;;11.36;100.00
80892;BME280;70343;51.530;5.050;2024-02-15T05:01:54;101502.28;;;11.41;100.00
80892;BME280;70343;51.530;5.050;2024-02-15T05:04:21;101500.84;;;11.39;100.00
80892;BME280;70343;51.530;5.050;2024-02-15T05:06:48;101497.41;;;11.38;100.00
80892;BME280;70343;51.530;5.050;2024-02-15T05:09:13;101503.47;;;11.39;100.00
80892;BME280;70343;51.530;5.050;2024-02-15T05:11:40;101510.09;;;11.41;100.00
80892;BME280;70343;51.530;5.050;2024-02-15T05:14:15;101512.91;;;11.40;100.00
80892;BME280;70343;51.530;5.050;2024-02-15T05:16:49;101520.75;;;11.40;100.00
80892;BME280;70343;51.530;5.050;2024-02-15T05:19:15;101510.28;;;11.40;100.00
80892;BME280;70343;51.530;5.050;2024-02-15T05:21:41;101520.91;;;11.38;100.00
80892;BME280;70343;51.530;5.050;2024-02-15T05:24:12;101518.13;;;11.40;100.00
80892;BME280;70343;51.530;5.050;2024-02-15T05:26:39;101507.88;;;11.38;100.00
80892;BME280;70343;51.530;5.050;2024-02-15T05:29:05;101496.59;;;11.38;100.00
80892;BME280;70343;51.530;5.050;2024-02-15T05:31:31;101470.88;;;11.35;100.00
80892;BME280;70343;51.530;5.050;2024-02-15T05:33:56;101472.03;;;11.32;100.00
80892;BME280;70343;51.530;5.050;2024-02-15T05:36:23;101485.25;;;11.31;100.00
80892;BME280;70343;51.530;5.050;2024-02-15T05:38:54;101487.38;;;11.27;100.00
80892;BME280;70343;51.530;5.050;2024-02-15T05:41:20;101489.22;;;11.27;100.00
80892;BME280;70343;51.530;5.050;2024-02-15T05:43:47;101491.63;;;11.28;100.00
80892;BME280;70343;51.530;5.050;2024-02-15T05:46:18;101490.63;;;11.29;100.00
80892;BME280;70343;51.530;5.050;2024-02-15T05:48:46;101482.00;;;11.29;100.00
80892;BME280;70343;51.530;5.050;2024-02-15T05:51:12;101463.88;;;11.27;100.00
80892;BME280;70343;51.530;5.050;2024-02-15T05:53:38;101447.25;;;11.28;100.00
80892;BME280;70343;51.530;5.050;2024-02-15T05:56:05;101439.88;;;11.32;100.00
80892;BME280;70343;51.530;5.050;2024-02-15T05:58:31;101443.47;;;11.31;100.00
80892;BME280;70343;51.530;5.050;2024-02-15T06:00:57;101441.03;;;11.29;100.00
80892;BME280;70343;51.530;5.050;2024-02-15T06:03:27;101443.81;;;11.28;100.00
80892;BME280;70343;51.530;5.050;2024-02-15T06:05:53;101439.69;;;11.33;100.00
80892;BME280;70343;51.530;5.050;2024-02-15T06:08:24;101442.03;;;11.28;100.00
80892;BME280;70343;51.530;5.050;2024-02-15T06:10:50;101438.06;;;11.32;100.00
80892;BME280;70343;51.530;5.050;2024-02-15T06:13:16;101436.19;;;11.26;100.00
80892;BME280;70343;51.530;5.050;2024-02-15T06:15:41;101436.19;;;11.26;100.00
80892;BME280;70343;51.530;5.050;2024-02-15T06:18:07;101432.41;;;11.29;100.00
80892;BME280;70343;51.530;5.050;2024-02-15T06:20:35;101434.19;;;11.28;100.00
80892;BME280;70343;51.530;5.050;2024-02-15T06:23:02;101436.19;;;11.26;100.00
80892;BME280;70343;51.530;5.050;2024-02-15T06:25:33;101429.34;;;11.25;100.00
80892;BME280;70343;51.530;5.050;2024-02-15T06:27:58;101443.19;;;11.26;100.00
80892;BME280;70343;51.530;5.050;2024-02-15T06:30:28;101439.41;;;11.28;100.00
80892;BME280;70343;51.530;5.050;2024-02-15T06:33:12;101436.44;;;11.31;100.00
80892;BME280;70343;51.530;5.050;2024-02-15T06:35:56;101439.88;;;11.32;100.00
80892;BME280;70343;51.530;5.050;2024-02-15T06:38:41;101448.72;;;11.31;100.00
80892;BME280;70343;51.530;5.050;2024-02-15T06:41:24;101456.34;;;11.32;100.00
80892;BME280;70343;51.530;5.050;2024-02-15T06:43:51;101450.75;;;11.35;100.00
80892;BME280;70343;51.530;5.050;2024-02-15T06:46:17;101455.81;;;11.37;100.00
80892;BME280;70343;51.530;5.050;2024-02-15T06:48:44;101449.59;;;11.38;100.00
80892;BME280;70343;51.530;5.050;2024-02-15T06:51:13;101446.34;;;11.36;100.00
80892;BME280;70343;51.530;5.050;2024-02-15T06:53:40;101434.75;;;11.38;100.00
80892;BME280;70343;51.530;5.050;2024-02-15T06:56:08;101419.28;;;11.37;100.00
80892;BME280;70343;51.530;5.050;2024-02-15T06:58:35;101417.63;;;11.36;100.00
80892;BME280;70343;51.530;5.050;2024-02-15T07:01:01;101423.50;;;11.38;100.00
80892;BME280;70343;51.530;5.050;2024-02-15T07:03:28;101420.63;;;11.33;100.00
80892;BME280;70343;51.530;5.050;2024-02-15T07:05:55;101427.44;;;11.34;100.00
80892;BME280;70343;51.530;5.050;2024-02-15T07:08:21;101435.66;;;11.31;100.00
80892;BME280;70343;51.530;5.050;2024-02-15T07:10:50;101436.28;;;11.33;100.00
80892;BME280;70343;51.530;5.050;2024-02-15T07:13:17;101440.88;;;11.31;100.00
80892;BME280;70343;51.530;5.050;2024-02-15T07:15:43;101445.09;;;11.32;100.00
80892;BME280;70343;51.530;5.050;2024-02-15T07:18:09;101437.63;;;11.29;100.00
80892;BME280;70343;51.530;5.050;2024-02-15T07:20:35;101431.41;;;11.30;100.00
80892;BME280;70343;51.530;5.050;2024-02-15T07:23:02;101434.00;;;11.30;100.00
80892;BME280;70343;51.530;5.050;2024-02-15T07:25:29;101437.06;;;11.33;100.00
80892;BME280;70343;51.530;5.050;2024-02-15T07:27:54;101435.47;;;11.32;100.00
80892;BME280;70343;51.530;5.050;2024-02-15T07:30:22;101443.56;;;11.37;100.00
80892;BME280;70343;51.530;5.050;2024-02-15T07:32:49;101443.56;;;11.37;100.00
80892;BME280;70343;51.530;5.050;2024-02-15T07:35:14;101444.19;;;11.39;100.00
80892;BME280;70343;51.530;5.050;2024-02-15T07:37:52;101444.03;;;11.41;100.00
80892;BME280;70343;51.530;5.050;2024-02-15T07:40:21;101433.94;;;11.38;100.00
80892;BME280;70343;51.530;5.050;2024-02-15T07:42:48;101451.88;;;11.41;100.00
80892;BME280;70343;51.530;5.050;2024-02-15T07:45:14;101438.06;;;11.47;100.00
80892;BME280;70343;51.530;5.050;2024-02-15T07:47:40;101437.44;;;11.45;100.00
80892;BME280;70343;51.530;5.050;2024-02-15T07:50:06;101434.38;;;11.41;100.00
80892;BME280;70343;51.530;5.050;2024-02-15T07:52:32;101435.31;;;11.48;100.00
80892;BME280;70343;51.530;5.050;2024-02-15T07:54:58;101434.75;;;11.53;100.00
80892;BME280;70343;51.530;5.050;2024-02-15T07:57:24;101428.72;;;11.52;100.00
80892;BME280;70343;51.530;5.050;2024-02-15T07:59:50;101434.59;;;11.54;100.00
80892;BME280;70343;51.530;5.050;2024-02-15T08:02:16;101437.97;;;11.55;100.00
80892;BME280;70343;51.530;5.050;2024-02-15T08:04:47;101433.06;;;11.60;100.00
80892;BME280;70343;51.530;5.050;2024-02-15T08:07:13;101428.81;;;11.59;100.00
80892;BME280;70343;51.530;5.050;2024-02-15T08:09:41;101437.91;;;11.63;100.00
80892;BME280;70343;51.530;5.050;2024-02-15T08:12:07;101431.22;;;11.60;100.00
80892;BME280;70343;51.530;5.050;2024-02-15T08:14:32;101428.00;;;11.58;100.00
80892;BME280;70343;51.530;5.050;2024-02-15T08:16:58;101430.63;;;11.58;100.00
80892;BME280;70343;51.530;5.050;2024-02-15T08:19:23;101429.44;;;11.61;100.00
80892;BME280;70343;51.530;5.050;2024-02-15T08:21:49;101428.16;;;11.57;100.00
80892;BME280;70343;51.530;5.050;2024-02-15T08:24:16;101433.78;;;11.54;100.00
80892;BME280;70343;51.530;5.050;2024-02-15T08:26:42;101423.94;;;11.56;100.00
80892;BME280;70343;51.530;5.050;2024-02-15T08:29:08;101430.78;;;11.57;100.00
80892;BME280;70343;51.530;5.050;2024-02-15T08:31:34;101425.41;;;11.58;100.00
80892;BME280;70343;51.530;5.050;2024-02-15T08:34:04;101426.19;;;11.59;100.00
80892;BME280;70343;51.530;5.050;2024-02-15T08:36:35;101430.78;;;11.57;100.00
80892;BME280;70343;51.530;5.050;2024-02-15T08:39:01;101436.38;;;11.54;100.00
80892;BME280;70343;51.530;5.050;2024-02-15T08:41:26;101427.19;;;11.58;100.00
80892;BME280;70343;51.530;5.050;2024-02-15T08:43:52;101424.53;;;11.66;100.00
80892;BME280;70343;51.530;5.050;2024-02-15T08:46:18;101424.22;;;11.61;100.00
80892;BME280;70343;51.530;5.050;2024-02-15T08:48:45;101423.34;;;11.69;100.00
80892;BME280;70343;51.530;5.050;2024-02-15T08:51:12;101414.72;;;11.68;100.00
80892;BME280;70343;51.530;5.050;2024-02-15T08:53:37;101417.75;;;11.72;100.00
80892;BME280;70343;51.530;5.050;2024-02-15T08:56:04;101416.31;;;11.69;100.00
80892;BME280;70343;51.530;5.050;2024-02-15T08:58:30;101408.34;;;11.62;100.00
80892;BME280;70343;51.530;5.050;2024-02-15T09:00:56;101419.38;;;11.73;100.00
80892;BME280;70343;51.530;5.050;2024-02-15T09:03:22;101405.97;;;11.76;100.00
80892;BME280;70343;51.530;5.050;2024-02-15T09:05:47;101408.00;;;11.80;100.00
80892;BME280;70343;51.530;5.050;2024-02-15T09:08:13;101404.03;;;11.84;100.00
80892;BME280;70343;51.530;5.050;2024-02-15T09:10:39;101402.50;;;11.90;100.00
80892;BME280;70343;51.530;5.050;2024-02-15T09:13:04;101417.72;;;11.86;100.00
80892;BME280;70343;51.530;5.050;2024-02-15T09:15:31;101412.88;;;11.83;100.00
80892;BME280;70343;51.530;5.050;2024-02-15T09:17:56;101418.09;;;11.83;100.00
80892;BME280;70343;51.530;5.050;2024-02-15T09:20:24;101415.22;;;11.78;100.00
80892;BME280;70343;51.530;5.050;2024-02-15T09:22:54;101413.59;;;11.77;100.00
80892;BME280;70343;51.530;5.050;2024-02-15T09:25:20;101418.34;;;11.88;100.00
80892;BME280;70343;51.530;5.050;2024-02-15T09:27:49;101413.84;;;11.82;100.00
80892;BME280;70343;51.530;5.050;2024-02-15T09:30:16;101419.34;;;11.87;100.00
80892;BME280;70343;51.530;5.050;2024-02-15T09:32:42;101415.38;;;11.91;100.00
80892;BME280;70343;51.530;5.050;2024-02-15T09:35:12;101422.22;;;11.92;100.00
80892;BME280;70343;51.530;5.050;2024-02-15T09:37:42;101415.00;;;11.94;100.00
80892;BME280;70343;51.530;5.050;2024-02-15T09:40:12;101407.59;;;11.98;100.00
80892;BME280;70343;51.530;5.050;2024-02-15T09:42:38;101416.16;;;12.06;100.00
80892;BME280;70343;51.530;5.050;2024-02-15T09:45:08;101416.41;;;12.11;100.00
80892;BME280;70343;51.530;5.050;2024-02-15T09:47:38;101415.03;;;12.15;100.00
80892;BME280;70343;51.530;5.050;2024-02-15T09:50:12;101419.72;;;12.20;100.00
80892;BME280;70343;51.530;5.050;2024-02-15T09:52:45;101424.53;;;12.16;100.00
80892;BME280;70343;51.530;5.050;2024-02-15T09:55:12;101416.94;;;12.21;100.00
80892;BME280;70343;51.530;5.050;2024-02-15T09:57:44;101416.63;;;12.31;100.00
80892;BME280;70343;51.530;5.050;2024-02-15T10:00:12;101422.78;;;12.23;100.00
80892;BME280;70343;51.530;5.050;2024-02-15T10:02:43;101411.22;;;12.32;100.00
80892;BME280;70343;51.530;5.050;2024-02-15T10:05:10;101417.00;;;12.28;100.00
80892;BME280;70343;51.530;5.050;2024-02-15T10:10:15;101411.69;;;12.42;100.00
80892;BME280;70343;51.530;5.050;2024-02-15T10:12:42;101407.88;;;12.38;100.00
80892;BME280;70343;51.530;5.050;2024-02-15T10:15:09;101412.22;;;12.31;100.00
80892;BME280;70343;51.530;5.050;2024-02-15T10:17:35;101420.56;;;12.41;100.00
80892;BME280;70343;51.530;5.050;2024-02-15T10:20:05;101411.84;;;12.34;100.00
80892;BME280;70343;51.530;5.050;2024-02-15T10:22:32;101419.56;;;12.42;100.00
80892;BME280;70343;51.530;5.050;2024-02-15T10:25:13;101420.75;;;12.40;100.00
80892;BME280;70343;51.530;5.050;2024-02-15T10:27:42;101413.16;;;12.45;100.00
80892;BME280;70343;51.530;5.050;2024-02-15T10:30:15;101421.31;;;12.57;100.00
80892;BME280;70343;51.530;5.050;2024-02-15T10:32:41;101418.69;;;12.57;100.00
80892;BME280;70343;51.530;5.050;2024-02-15T10:35:07;101410.97;;;12.70;100.00
80892;BME280;70343;51.530;5.050;2024-02-15T10:37:33;101411.28;;;12.60;100.00
80892;BME280;70343;51.530;5.050;2024-02-15T10:40:05;101416.69;;;12.59;100.00
80892;BME280;70343;51.530;5.050;2024-02-15T10:42:36;101411.97;;;12.69;100.00
80892;BME280;70343;51.530;5.050;2024-02-15T10:45:05;101405.69;;;12.63;100.00
80892;BME280;70343;51.530;5.050;2024-02-15T10:47:37;101403.38;;;12.53;100.00
80892;BME280;70343;51.530;5.050;2024-02-15T10:50:04;101398.78;;;12.56;100.00
80892;BME280;70343;51.530;5.050;2024-02-15T10:52:31;101398.16;;;12.53;100.00
80892;BME280;70343;51.530;5.050;2024-02-15T10:55:04;101401.13;;;12.50;100.00
80892;BME280;70343;51.530;5.050;2024-02-15T10:57:37;101401.63;;;12.61;100.00
80892;BME280;70343;51.530;5.050;2024-02-15T11:00:05;101402.00;;;12.58;100.00
80892;BME280;70343;51.530;5.050;2024-02-15T11:02:53;101398.03;;;12.62;100.00
80892;BME280;70343;51.530;5.050;2024-02-15T11:05:20;101391.78;;;12.63;100.00
80892;BME280;70343;51.530;5.050;2024-02-15T11:07:49;101389.16;;;12.63;100.00
80892;BME280;70343;51.530;5.050;2024-02-15T11:10:14;101387.03;;;12.73;100.00
80892;BME280;70343;51.530;5.050;2024-02-15T11:12:42;101380.16;;;12.72;100.00
80892;BME280;70343;51.530;5.050;2024-02-15T11:15:09;101388.97;;;12.85;100.00
80892;BME280;70343;51.530;5.050;2024-02-15T11:22:58;101367.09;;;12.99;100.00
80892;BME280;70343;51.530;5.050;2024-02-15T11:25:37;101372.41;;;13.06;100.00
80892;BME280;70343;51.530;5.050;2024-02-15T11:30:54;101360.44;;;13.24;100.00
80892;BME280;70343;51.530;5.050;2024-02-15T11:33:33;101359.50;;;13.32;100.00
80892;BME280;70343;51.530;5.050;2024-02-15T11:36:12;101369.44;;;13.50;100.00
80892;BME280;70343;51.530;5.050;2024-02-15T11:38:39;101365.66;;;13.59;100.00
80892;BME280;70343;51.530;5.050;2024-02-15T11:41:10;101347.50;;;13.64;100.00
80892;BME280;70343;51.530;5.050;2024-02-15T11:43:50;101354.44;;;13.78;100.00
80892;BME280;70343;51.530;5.050;2024-02-15T11:46:23;101342.75;;;13.80;100.00
80892;BME280;70343;51.530;5.050;2024-02-15T11:48:57;101343.19;;;13.90;100.00
80892;BME280;70343;51.530;5.050;2024-02-15T11:51:28;101336.94;;;13.91;100.00
80892;BME280;70343;51.530;5.050;2024-02-15T11:54:11;101328.69;;;13.94;100.00
80892;BME280;70343;51.530;5.050;2024-02-15T11:59:20;101330.72;;;14.05;100.00
80892;BME280;70343;51.530;5.050;2024-02-15T12:01:58;101323.66;;;14.06;100.00
80892;BME280;70343;51.530;5.050;2024-02-15T12:04:43;101326.06;;;14.07;100.00
80892;BME280;70343;51.530;5.050;2024-02-15T12:07:28;101323.47;;;14.14;100.00
80892;BME280;70343;51.530;5.050;2024-02-15T12:10:18;101315.81;;;14.25;100.00
80892;BME280;70343;51.530;5.050;2024-02-15T12:13:03;101311.56;;;14.24;100.00
80892;BME280;70343;51.530;5.050;2024-02-15T12:15:57;101315.03;;;14.45;100.00
80892;BME280;70343;51.530;5.050;2024-02-15T12:18:42;101307.16;;;14.45;100.00
80892;BME280;70343;51.530;5.050;2024-02-15T12:21:09;101299.50;;;14.43;100.00
80892;BME280;70343;51.530;5.050;2024-02-15T12:23:37;101302.31;;;14.48;100.00
80892;BME280;70343;51.530;5.050;2024-02-15T12:26:04;101300.50;;;14.49;100.00
80892;BME280;70343;51.530;5.050;2024-02-15T12:28:32;101295.25;;;14.42;100.00
80892;BME280;70343;51.530;5.050;2024-02-15T12:31:01;101289.19;;;14.42;100.00
80892;BME280;70343;51.530;5.050;2024-02-15T12:33:27;101288.78;;;14.51;100.00
80892;BME280;70343;51.530;5.050;2024-02-15T12:36:03;101287.56;;;14.60;100.00
80892;BME280;70343;51.530;5.050;2024-02-15T12:38:30;101282.75;;;14.51;100.00
80892;BME280;70343;51.530;5.050;2024-02-15T12:40:56;101272.25;;;14.51;100.00
80892;BME280;70343;51.530;5.050;2024-02-15T12:43:22;101280.72;;;14.46;100.00
80892;BME280;70343;51.530;5.050;2024-02-15T12:45:47;101277.47;;;14.57;100.00
80892;BME280;70343;51.530;5.050;2024-02-15T12:48:13;101273.63;;;14.53;100.00
80892;BME280;70343;51.530;5.050;2024-02-15T12:50:41;101268.56;;;14.65;100.00
80892;BME280;70343;51.530;5.050;2024-02-15T12:53:06;101266.97;;;14.70;100.00
80892;BME280;70343;51.530;5.050;2024-02-15T12:55:36;101259.50;;;14.74;100.00
80892;BME280;70343;51.530;5.050;2024-02-15T12:58:07;101252.78;;;14.84;100.00